Time;durP1;ratioP1;P1;durP2;ratioP2;P2;SDS_P1;SDS_P2;PMS_P1;PMS_P2;Temp;Humidity;BMP_temperature;BMP_pressure;BME280_temperature;BME280_humidity;BME280_pressure;Samples;Min_cycle;Max_cycle;Signal;HPM_P1;HPM_P2
2021/10/02 00:02:19;;;;;;;;;;;;;;;10.64;99.70;100860.86;1609061;87;20648;-81
2021/10/02 00:45:25;;;;;;;;;;;;;;;11.06;100.00;100809.50;1597105;88;20181;-77
2021/10/02 00:47:55;;;;;;;;;;;;;;;11.08;100.00;100807.06;1599897;88;20190;-78
2021/10/02 00:50:20;;;;;;;;;;;;;;;11.09;100.00;100802.13;1599782;88;20814;-83
2021/10/02 00:52:47;;;;;;;;;;;;;;;11.08;100.00;100799.14;1598867;88;20149;-81
2021/10/02 00:55:12;;;;;;;;;;;;;;;11.10;100.00;100795.03;1597036;88;21164;-83
2021/10/02 00:57:38;;;;;;;;;;;;;;;11.12;100.00;100799.20;1598947;88;20905;-78
2021/10/02 01:00:05;;;;;;;;;;;;;;;11.19;100.00;100793.34;1599166;88;20159;-78
2021/10/02 01:02:40;;;;;;;;;;;;;;;11.19;100.00;100792.02;1594918;89;20178;-81
2021/10/02 01:05:44;;;;;;;;;;;;;;;11.20;100.00;100790.55;1599593;88;20242;-87
2021/10/02 01:08:19;;;;;;;;;;;;;;;11.22;100.00;100791.23;1595157;89;21271;-78
2021/10/02 01:10:51;;;;;;;;;;;;;;;11.29;100.00;100788.84;1599283;89;20226;-79
2021/10/02 01:13:46;;;;;;;;;;;;;;;11.34;100.00;100786.58;1596489;88;20233;-81
2021/10/02 01:16:17;;;;;;;;;;;;;;;11.32;99.89;100788.55;1596969;89;20146;-86
2021/10/02 01:19:07;;;;;;;;;;;;;;;11.29;99.44;100782.22;1589593;90;20164;-80
2021/10/02 01:21:53;;;;;;;;;;;;;;;11.22;99.64;100779.84;1634236;86;22001;-80
2021/10/02 01:24:37;;;;;;;;;;;;;;;11.17;99.95;100783.38;1636346;86;20988;-86
2021/10/02 01:27:16;;;;;;;;;;;;;;;11.18;99.73;100775.80;1617790;87;20219;-81
2021/10/02 01:29:42;;;;;;;;;;;;;;;11.18;99.62;100777.13;1633502;86;20184;-80
2021/10/02 01:32:22;;;;;;;;;;;;;;;11.16;99.67;100781.73;1625939;86;20180;-81
2021/10/02 01:37:58;;;;;;;;;;;;;;;11.17;99.80;100783.38;1625786;86;20129;-87
2021/10/02 01:48:21;;;;;;;;;;;;;;;11.18;99.44;100762.59;1628792;86;21270;-85
2021/10/02 01:50:47;;;;;;;;;;;;;;;11.18;99.08;100771.34;1626818;86;20207;-93
2021/10/02 01:53:13;;;;;;;;;;;;;;;11.19;99.22;100764.27;1615610;87;20228;-80
2021/10/02 01:55:38;;;;;;;;;;;;;;;11.20;99.03;100760.62;1617276;87;20158;-80
2021/10/02 01:58:07;;;;;;;;;;;;;;;11.21;99.10;100758.33;1613386;87;20814;-80
2021/10/02 02:00:32;;;;;;;;;;;;;;;11.23;99.17;100747.11;1609479;87;21123;-80
2021/10/02 02:03:03;;;;;;;;;;;;;;;11.22;99.23;100750.75;1620310;87;20152;-80
2021/10/02 02:05:29;;;;;;;;;;;;;;;11.26;99.32;100752.11;1618539;87;20182;-80
2021/10/02 02:08:05;;;;;;;;;;;;;;;11.25;99.61;100747.82;1617504;87;20186;-82
2021/10/02 02:10:30;;;;;;;;;;;;;;;11.25;99.60;100746.50;1616236;87;20602;-81
2021/10/02 02:12:58;;;;;;;;;;;;;;;11.21;100.00;100745.11;1614512;87;21116;-83
2021/10/02 02:15:25;;;;;;;;;;;;;;;11.22;100.00;100747.61;1612482;87;20162;-86
2021/10/02 02:17:52;;;;;;;;;;;;;;;11.21;100.00;100746.44;1613928;87;20602;-81
2021/10/02 02:20:21;;;;;;;;;;;;;;;11.23;100.00;100749.76;1620540;87;20966;-80
2021/10/02 02:22:47;;;;;;;;;;;;;;;11.27;100.00;100751.96;1612111;87;20241;-80
2021/10/02 02:25:13;;;;;;;;;;;;;;;11.27;100.00;100745.86;1629373;86;21148;-83
2021/10/02 02:27:39;;;;;;;;;;;;;;;11.27;100.00;100741.89;1619477;87;20330;-87
2021/10/02 02:30:05;;;;;;;;;;;;;;;11.32;100.00;100738.30;1616697;87;20301;-86
2021/10/02 02:32:30;;;;;;;;;;;;;;;11.34;100.00;100745.59;1613512;87;20260;-83
2021/10/02 02:34:56;;;;;;;;;;;;;;;11.34;100.00;100740.80;1609671;87;20374;-80
2021/10/02 02:37:21;;;;;;;;;;;;;;;11.32;100.00;100737.80;1616660;87;21125;-82
2021/10/02 02:39:47;;;;;;;;;;;;;;;11.40;100.00;100729.14;1623121;87;20199;-80
2021/10/02 02:42:13;;;;;;;;;;;;;;;11.40;100.00;100725.67;1616528;87;20174;-84
2021/10/02 02:44:38;;;;;;;;;;;;;;;11.39;100.00;100722.67;1637174;85;20166;-81
2021/10/02 02:47:09;;;;;;;;;;;;;;;11.46;100.00;100714.00;1631817;86;20145;-80
2021/10/02 02:49:41;;;;;;;;;;;;;;;11.50;100.00;100710.09;1633866;86;21880;-81
2021/10/02 02:52:11;;;;;;;;;;;;;;;11.57;100.00;100709.50;1633530;86;20135;-79
2021/10/02 02:54:42;;;;;;;;;;;;;;;11.59;100.00;100714.14;1626893;86;20164;-80
2021/10/02 02:57:13;;;;;;;;;;;;;;;11.64;100.00;100708.76;1624550;86;20251;-80
2021/10/02 02:59:45;;;;;;;;;;;;;;;11.63;100.00;100701.80;1616468;87;20149;-79
2021/10/02 03:02:13;;;;;;;;;;;;;;;11.62;100.00;100709.41;1626630;86;21126;-87
2021/10/02 03:04:39;;;;;;;;;;;;;;;11.62;100.00;100701.94;1626177;87;20203;-80
2021/10/02 03:07:05;;;;;;;;;;;;;;;11.56;100.00;100703.86;1624850;88;21142;-80
2021/10/02 03:09:37;;;;;;;;;;;;;;;11.64;100.00;100706.11;1645908;85;20171;-87
2021/10/02 03:12:03;;;;;;;;;;;;;;;11.65;100.00;100704.29;1645330;87;20180;-80
2021/10/02 03:14:28;;;;;;;;;;;;;;;11.66;100.00;100708.11;1626452;86;21275;-83
2021/10/02 03:16:55;;;;;;;;;;;;;;;11.65;100.00;100720.16;1630029;86;20218;-80
2021/10/02 03:19:23;;;;;;;;;;;;;;;11.65;100.00;100713.55;1623018;86;20189;-79
2021/10/02 03:21:50;;;;;;;;;;;;;;;11.67;100.00;100712.43;1623593;87;20176;-85
2021/10/02 03:24:19;;;;;;;;;;;;;;;11.65;100.00;100709.58;1645546;86;20162;-80
2021/10/02 03:26:44;;;;;;;;;;;;;;;11.68;100.00;100706.64;1646274;86;21153;-81
2021/10/02 03:29:10;;;;;;;;;;;;;;;11.71;100.00;100702.37;1609451;86;20266;-80
2021/10/02 03:31:36;;;;;;;;;;;;;;;11.56;100.00;100705.18;1645805;86;20185;-82
2021/10/02 03:34:02;;;;;;;;;;;;;;;11.60;100.00;100706.56;1647949;86;20156;-83
2021/10/02 03:36:28;;;;;;;;;;;;;;;11.54;100.00;100701.36;1641657;86;20506;-79
2021/10/02 03:38:54;;;;;;;;;;;;;;;11.56;100.00;100703.86;1648028;86;21209;-83
2021/10/02 03:41:20;;;;;;;;;;;;;;;11.52;100.00;100698.05;1648814;86;20182;-80
2021/10/02 03:43:45;;;;;;;;;;;;;;;11.54;100.00;100692.61;1648268;86;20155;-79
2021/10/02 03:46:11;;;;;;;;;;;;;;;11.55;100.00;100692.95;1645368;86;20135;-79
2021/10/02 03:48:37;;;;;;;;;;;;;;;11.61;100.00;100700.30;1646178;86;20504;-80
2021/10/02 03:51:02;;;;;;;;;;;;;;;11.63;100.00;100699.14;1648748;86;21096;-85
2021/10/02 03:53:28;;;;;;;;;;;;;;;11.62;100.00;100692.21;1647702;86;20513;-86
2021/10/02 03:55:57;;;;;;;;;;;;;;;11.62;100.00;100693.53;1645600;85;20360;-83
2021/10/02 03:58:26;;;;;;;;;;;;;;;11.59;100.00;100692.98;1647482;86;21528;-80
2021/10/02 04:00:51;;;;;;;;;;;;;;;11.55;100.00;100696.92;1647794;86;20126;-81
2021/10/02 04:03:17;;;;;;;;;;;;;;;11.55;100.00;100700.89;1644788;86;21875;-82
2021/10/02 04:05:43;;;;;;;;;;;;;;;11.47;100.00;100693.20;1645235;86;20216;-79
2021/10/02 04:08:09;;;;;;;;;;;;;;;11.43;100.00;100698.43;1646781;86;20162;-79
2021/10/02 04:10:35;;;;;;;;;;;;;;;11.49;100.00;100694.37;1646873;86;20357;-79
2021/10/02 04:13:01;;;;;;;;;;;;;;;11.48;100.00;100696.20;1648282;86;20145;-85
2021/10/02 04:15:28;;;;;;;;;;;;;;;11.40;100.00;100693.44;1645818;86;21085;-82
2021/10/02 04:17:54;;;;;;;;;;;;;;;11.36;100.00;100701.34;1647894;86;20716;-89
2021/10/02 04:20:19;;;;;;;;;;;;;;;11.38;100.00;100702.02;1645636;86;20145;-84
2021/10/02 04:22:45;;;;;;;;;;;;;;;11.41;100.00;100701.73;1646261;86;20127;-80
2021/10/02 04:25:10;;;;;;;;;;;;;;;11.31;100.00;100696.97;1648935;86;20169;-86
2021/10/02 04:27:36;;;;;;;;;;;;;;;11.41;100.00;100704.38;1646896;86;21184;-79
2021/10/02 04:30:02;;;;;;;;;;;;;;;11.40;100.00;100695.27;1644421;86;20166;-84
2021/10/02 04:32:28;;;;;;;;;;;;;;;11.47;100.00;100705.10;1646360;86;20209;-80
2021/10/02 04:34:53;;;;;;;;;;;;;;;11.50;100.00;100698.70;1647460;85;20479;-79
2021/10/02 04:37:19;;;;;;;;;;;;;;;11.54;100.00;100699.22;1647558;85;20142;-80
2021/10/02 04:39:44;;;;;;;;;;;;;;;11.61;100.00;100696.33;1647463;85;21179;-81
2021/10/02 04:42:10;;;;;;;;;;;;;;;11.62;100.00;100696.65;1644952;86;20218;-79
2021/10/02 04:44:36;;;;;;;;;;;;;;;11.67;100.00;100701.02;1646872;86;20192;-80
2021/10/02 04:47:02;;;;;;;;;;;;;;;11.63;100.00;100703.12;1618484;86;20342;-80
2021/10/02 04:49:27;;;;;;;;;;;;;;;11.70;100.00;100704.69;1643949;86;20249;-85
2021/10/02 04:51:53;;;;;;;;;;;;;;;11.69;100.00;100700.38;1644544;86;21097;-83
2021/10/02 04:54:18;;;;;;;;;;;;;;;11.65;100.00;100705.14;1646032;86;20223;-82
2021/10/02 04:56:45;;;;;;;;;;;;;;;11.63;100.00;100696.50;1647683;86;20157;-78
2021/10/02 04:59:10;;;;;;;;;;;;;;;11.63;100.00;100698.33;1646167;86;20185;-86
2021/10/02 05:01:37;;;;;;;;;;;;;;;11.62;100.00;100698.83;1649323;86;20144;-82
2021/10/02 05:04:03;;;;;;;;;;;;;;;11.62;100.00;100695.33;1650394;85;21187;-80
2021/10/02 05:06:28;;;;;;;;;;;;;;;11.59;100.00;100689.02;1633997;86;20217;-79
2021/10/02 05:08:54;;;;;;;;;;;;;;;11.61;100.00;100684.42;1638258;86;20405;-81
2021/10/02 05:11:20;;;;;;;;;;;;;;;11.60;100.00;100685.40;1630643;87;20173;-81
2021/10/02 05:13:45;;;;;;;;;;;;;;;11.62;100.00;100683.42;1630222;86;20137;-80
2021/10/02 05:16:11;;;;;;;;;;;;;;;11.60;100.00;100678.78;1629853;86;21152;-80
2021/10/02 05:18:36;;;;;;;;;;;;;;;11.56;100.00;100686.67;1630238;86;20341;-80
2021/10/02 05:21:02;;;;;;;;;;;;;;;11.60;100.00;100680.11;1622746;87;20518;-83
2021/10/02 05:23:28;;;;;;;;;;;;;;;11.56;100.00;100677.41;1622925;87;20184;-81
2021/10/02 05:25:54;;;;;;;;;;;;;;;11.63;100.00;100673.20;1620076;86;20184;-82
2021/10/02 05:28:21;;;;;;;;;;;;;;;11.69;100.00;100667.30;1623859;88;21098;-80
2021/10/02 05:30:47;;;;;;;;;;;;;;;11.71;100.00;100661.36;1607930;88;20215;-81
2021/10/02 05:33:13;;;;;;;;;;;;;;;11.75;100.00;100652.15;1646666;86;20178;-80
2021/10/02 05:35:40;;;;;;;;;;;;;;;11.77;100.00;100647.52;1646726;86;20233;-80
2021/10/02 05:38:07;;;;;;;;;;;;;;;11.78;100.00;100650.52;1617601;86;20114;-81
2021/10/02 05:40:33;;;;;;;;;;;;;;;11.71;100.00;100686.99;1648479;85;21198;-80
2021/10/02 05:43:02;;;;;;;;;;;;;;;11.74;100.00;100683.55;1648349;86;20234;-84
2021/10/02 05:45:26;;;;;;;;;;;;;;;11.79;100.00;100670.72;1646847;86;20236;-81
2021/10/02 05:47:52;;;;;;;;;;;;;;;11.76;100.00;100678.96;1634217;86;20668;-83
2021/10/02 05:50:17;;;;;;;;;;;;;;;11.78;100.00;100675.66;1630318;86;20974;-88
2021/10/02 05:52:43;;;;;;;;;;;;;;;11.80;100.00;100678.98;1631153;86;20679;-81
2021/10/02 05:55:11;;;;;;;;;;;;;;;11.77;100.00;100671.34;1630057;86;20464;-79
2021/10/02 05:57:36;;;;;;;;;;;;;;;11.85;100.00;100667.94;1642512;86;20153;-84
2021/10/02 06:00:04;;;;;;;;;;;;;;;11.83;100.00;100665.44;1634230;86;20218;-83
2021/10/02 06:02:30;;;;;;;;;;;;;;;11.89;100.00;100676.42;1641791;86;20982;-80
2021/10/02 06:04:57;;;;;;;;;;;;;;;11.93;100.00;100665.89;1632159;86;21172;-80
2021/10/02 06:07:23;;;;;;;;;;;;;;;11.94;100.00;100663.59;1628780;86;20202;-82
2021/10/02 06:09:51;;;;;;;;;;;;;;;11.91;100.00;100674.45;1631572;86;20598;-80
2021/10/02 06:12:17;;;;;;;;;;;;;;;11.99;100.00;100668.78;1623944;86;20137;-79
2021/10/02 06:14:42;;;;;;;;;;;;;;;12.02;100.00;100666.30;1635072;86;20202;-84
2021/10/02 06:17:08;;;;;;;;;;;;;;;12.04;100.00;100657.70;1626017;86;21996;-82
2021/10/02 06:19:34;;;;;;;;;;;;;;;12.13;100.00;100663.41;1627183;87;20195;-89
2021/10/02 06:22:00;;;;;;;;;;;;;;;12.14;100.00;100662.42;1623968;86;20178;-80
2021/10/02 06:24:30;;;;;;;;;;;;;;;12.20;100.00;100655.70;1632684;86;20900;-80
2021/10/02 06:26:59;;;;;;;;;;;;;;;12.24;100.00;100654.88;1631168;86;20517;-80
2021/10/02 06:29:23;;;;;;;;;;;;;;;12.25;100.00;100655.23;1629680;86;20208;-80
2021/10/02 06:31:49;;;;;;;;;;;;;;;12.28;100.00;100657.57;1632689;86;20288;-80
2021/10/02 06:34:14;;;;;;;;;;;;;;;12.26;100.00;100664.81;1633529;86;20221;-82
2021/10/02 06:36:42;;;;;;;;;;;;;;;12.30;100.00;100659.56;1629984;86;20152;-80
2021/10/02 06:39:07;;;;;;;;;;;;;;;12.31;100.00;100657.27;1630373;86;20232;-88
2021/10/02 06:41:33;;;;;;;;;;;;;;;12.32;100.00;100658.91;1629768;86;21119;-81
2021/10/02 06:44:00;;;;;;;;;;;;;;;12.33;100.00;100656.61;1603988;87;20430;-80
2021/10/02 06:46:27;;;;;;;;;;;;;;;12.35;100.00;100661.25;1635101;86;20206;-80
2021/10/02 06:48:55;;;;;;;;;;;;;;;12.33;100.00;100665.88;1629035;86;20136;-87
2021/10/02 06:51:20;;;;;;;;;;;;;;;12.38;100.00;100662.26;1629899;86;20322;-89
2021/10/02 06:53:46;;;;;;;;;;;;;;;12.42;100.00;100664.95;1627372;86;22108;-81
2021/10/02 06:56:11;;;;;;;;;;;;;;;12.43;100.00;100665.30;1636631;86;20151;-81
2021/10/02 06:58:39;;;;;;;;;;;;;;;12.44;100.00;100661.64;1635169;85;20474;-83
2021/10/02 07:01:05;;;;;;;;;;;;;;;12.39;100.00;100665.26;1635755;86;20266;-82
2021/10/02 07:03:31;;;;;;;;;;;;;;;12.38;100.00;100662.26;1638106;86;20185;-82
2021/10/02 07:05:56;;;;;;;;;;;;;;;12.39;100.00;100674.52;1639208;85;21169;-91
2021/10/02 07:08:22;;;;;;;;;;;;;;;12.42;100.00;100670.75;1630768;86;20147;-81
2021/10/02 07:10:48;;;;;;;;;;;;;;;12.48;100.00;100673.59;1632147;86;20500;-81
2021/10/02 07:13:14;;;;;;;;;;;;;;;12.52;100.00;100670.98;1634688;86;20174;-81
2021/10/02 07:15:42;;;;;;;;;;;;;;;12.56;100.00;100665.69;1634086;87;20461;-80
2021/10/02 07:18:07;;;;;;;;;;;;;;;12.51;100.00;100669.31;1630694;85;20919;-82
2021/10/02 07:20:33;;;;;;;;;;;;;;;12.55;100.00;100668.02;1636074;86;20209;-82
2021/10/02 07:22:59;;;;;;;;;;;;;;;12.55;100.00;100672.47;1628423;86;20141;-88
2021/10/02 07:25:25;;;;;;;;;;;;;;;12.59;100.00;100676.98;1623900;86;20149;-87
2021/10/02 07:27:51;;;;;;;;;;;;;;;12.55;100.00;100681.27;1624244;86;20185;-85
2021/10/02 07:30:17;;;;;;;;;;;;;;;12.54;100.00;100684.89;1643889;86;21104;-81
2021/10/02 07:32:42;;;;;;;;;;;;;;;12.59;100.00;100684.42;1630783;87;20234;-82
2021/10/02 07:35:09;;;;;;;;;;;;;;;12.57;100.00;100683.26;1628871;86;20216;-85
2021/10/02 07:37:35;;;;;;;;;;;;;;;12.64;100.00;100687.94;1631334;87;20607;-90
2021/10/02 07:40:00;;;;;;;;;;;;;;;12.67;100.00;100678.34;1631638;87;20149;-84
2021/10/02 07:42:29;;;;;;;;;;;;;;;12.71;100.00;100679.20;1633597;86;21102;-80
2021/10/02 07:45:01;;;;;;;;;;;;;;;12.76;100.00;100685.36;1627153;86;20199;-80
2021/10/02 07:47:27;;;;;;;;;;;;;;;12.78;100.00;100676.74;1619722;86;20155;-83
2021/10/02 07:49:52;;;;;;;;;;;;;;;12.87;100.00;100670.50;1614923;87;20123;-79
2021/10/02 07:52:18;;;;;;;;;;;;;;;12.95;100.00;100670.21;1629881;86;20503;-80
2021/10/02 07:54:44;;;;;;;;;;;;;;;13.01;100.00;100666.92;1636899;86;21187;-82
2021/10/02 07:57:09;;;;;;;;;;;;;;;13.12;100.00;100662.66;1628784;86;20194;-81
2021/10/02 07:59:37;;;;;;;;;;;;;;;13.17;99.73;100667.47;1629793;87;20179;-78
2021/10/02 08:02:07;;;;;;;;;;;;;;;13.17;99.47;100668.30;1623580;87;20602;-81
2021/10/02 08:04:34;;;;;;;;;;;;;;;13.27;99.57;100658.39;1618568;87;20179;-83
2021/10/02 08:07:01;;;;;;;;;;;;;;;13.26;99.06;100660.70;1621810;87;21042;-83
2021/10/02 08:09:28;;;;;;;;;;;;;;;13.30;98.72;100653.27;1625045;86;20845;-85
2021/10/02 08:11:53;;;;;;;;;;;;;;;13.33;98.56;100654.75;1614575;87;20194;-81
2021/10/02 08:14:21;;;;;;;;;;;;;;;13.36;98.57;100656.64;1620933;87;20200;-91
2021/10/02 08:16:48;;;;;;;;;;;;;;;13.40;98.51;100653.16;1605894;87;20350;-86
2021/10/02 08:19:15;;;;;;;;;;;;;;;13.44;98.35;100653.17;1633057;86;21401;-81
2021/10/02 08:21:43;;;;;;;;;;;;;;;13.44;98.29;100643.89;1608011;87;20210;-82
2021/10/02 08:24:09;;;;;;;;;;;;;;;13.52;98.26;100645.73;1624687;87;20222;-86
2021/10/02 08:26:34;;;;;;;;;;;;;;;13.56;97.84;100647.05;1622204;87;20201;-83
2021/10/02 08:29:02;;;;;;;;;;;;;;;13.61;97.53;100647.37;1620047;87;20148;-87
2021/10/02 08:31:28;;;;;;;;;;;;;;;13.59;97.17;100650.19;1621207;87;21149;-82
2021/10/02 08:33:55;;;;;;;;;;;;;;;13.61;96.58;100648.23;1595145;87;20167;-80
2021/10/02 08:36:24;;;;;;;;;;;;;;;13.54;96.48;100653.84;1594613;89;20622;-85
2021/10/02 08:38:50;;;;;;;;;;;;;;;13.63;96.73;100653.38;1589332;88;20226;-81
2021/10/02 08:41:19;;;;;;;;;;;;;;;13.61;96.73;100652.20;1595261;88;21160;-83
2021/10/02 08:43:47;;;;;;;;;;;;;;;13.58;96.59;100649.88;1606403;87;21264;-82
2021/10/02 08:46:16;;;;;;;;;;;;;;;13.63;96.47;100648.88;1607772;87;20190;-87
2021/10/02 08:48:43;;;;;;;;;;;;;;;13.71;96.49;100649.89;1621042;87;20184;-81
2021/10/02 08:51:09;;;;;;;;;;;;;;;13.77;96.25;100652.72;1621495;87;20189;-91
2021/10/02 08:53:35;;;;;;;;;;;;;;;13.85;95.84;100649.23;1618813;87;20136;-80
2021/10/02 08:56:01;;;;;;;;;;;;;;;13.86;95.88;100645.59;1619099;87;21141;-83
2021/10/02 08:58:27;;;;;;;;;;;;;;;13.95;95.92;100639.30;1593862;88;20235;-82
2021/10/02 09:00:54;;;;;;;;;;;;;;;13.99;95.65;100641.92;1585924;89;20564;-81
2021/10/02 09:03:20;;;;;;;;;;;;;;;14.02;95.19;100643.94;1584532;90;20239;-80
2021/10/02 09:05:46;;;;;;;;;;;;;;;13.99;95.25;100636.62;1617802;87;20166;-81
2021/10/02 09:08:13;;;;;;;;;;;;;;;13.96;95.49;100637.45;1596236;87;21064;-82
2021/10/02 09:10:39;;;;;;;;;;;;;;;13.95;95.74;100639.30;1624026;87;20478;-81
2021/10/02 09:13:06;;;;;;;;;;;;;;;14.05;95.85;100638.30;1626526;87;20294;-81
2021/10/02 09:15:34;;;;;;;;;;;;;;;14.08;95.88;100632.66;1596859;88;20491;-83
2021/10/02 09:17:59;;;;;;;;;;;;;;;14.16;95.07;100636.63;1620070;87;20221;-83
2021/10/02 09:20:29;;;;;;;;;;;;;;;14.24;94.70;100629.96;1619992;87;21994;-82
2021/10/02 09:22:57;;;;;;;;;;;;;;;14.31;94.39;100639.41;1586180;89;20156;-81
2021/10/02 09:25:23;;;;;;;;;;;;;;;14.42;94.17;100636.41;1605365;88;20498;-82
2021/10/02 09:28:09;;;;;;;;;;;;;;;14.50;94.00;100627.59;1583410;89;21024;-86
2021/10/02 09:30:35;;;;;;;;;;;;;;;14.58;93.34;100628.08;1589733;89;20221;-79
2021/10/02 09:33:12;;;;;;;;;;;;;;;14.61;92.65;100623.78;1588981;89;21994;-82
2021/10/02 09:35:39;;;;;;;;;;;;;;;14.65;91.87;100623.75;1586831;89;20153;-82
2021/10/02 09:38:08;;;;;;;;;;;;;;;14.76;91.87;100622.55;1586845;88;20342;-82
2021/10/02 09:40:33;;;;;;;;;;;;;;;14.70;91.20;100622.24;1586939;89;20219;-81
2021/10/02 09:43:00;;;;;;;;;;;;;;;14.80;91.38;100619.38;1618204;88;20528;-84
2021/10/02 09:45:30;;;;;;;;;;;;;;;14.80;91.33;100621.22;1615961;87;21105;-84
2021/10/02 09:47:57;;;;;;;;;;;;;;;14.85;90.95;100624.17;1609551;87;20517;-84
2021/10/02 09:50:25;;;;;;;;;;;;;;;14.85;90.86;100613.54;1615540;87;20222;-82
2021/10/02 09:52:54;;;;;;;;;;;;;;;14.86;90.80;100613.87;1609586;87;21074;-89
2021/10/02 09:55:34;;;;;;;;;;;;;;;14.91;90.90;100610.19;1593863;88;20221;-85
2021/10/02 09:58:05;;;;;;;;;;;;;;;14.95;90.80;100612.84;1616999;87;21126;-84
2021/10/02 10:00:39;;;;;;;;;;;;;;;14.99;90.88;100604.85;1607759;87;20148;-83
2021/10/02 10:03:06;;;;;;;;;;;;;;;15.07;90.55;100607.47;1608784;87;20503;-83
2021/10/02 10:05:34;;;;;;;;;;;;;;;15.10;90.28;100605.45;1589945;89;20560;-84
2021/10/02 10:08:02;;;;;;;;;;;;;;;15.05;90.44;100606.78;1617307;88;20175;-85
2021/10/02 10:10:30;;;;;;;;;;;;;;;15.11;90.26;100597.80;1616111;87;21066;-80
2021/10/02 10:12:56;;;;;;;;;;;;;;;15.08;90.16;100594.98;1592954;88;20219;-80
2021/10/02 10:15:31;;;;;;;;;;;;;;;15.11;89.65;100593.30;1580596;87;20536;-83
2021/10/02 10:17:58;;;;;;;;;;;;;;;15.15;89.56;100591.95;1585394;88;39475;-83
2021/10/02 10:20:39;;;;;;;;;;;;;;;15.29;89.41;100583.73;1605541;87;20145;-84
2021/10/02 10:23:05;;;;;;;;;;;;;;;15.34;89.57;100580.54;1608098;87;21153;-84
2021/10/02 10:25:33;;;;;;;;;;;;;;;15.39;89.07;100586.97;1627032;87;20224;-81
2021/10/02 10:28:00;;;;;;;;;;;;;;;15.46;88.14;100580.45;1598418;87;20159;-79
2021/10/02 10:30:28;;;;;;;;;;;;;;;15.52;87.64;100576.23;1644778;86;20209;-79
2021/10/02 10:33:06;;;;;;;;;;;;;;;15.60;87.40;100574.34;1645817;86;20181;-78
2021/10/02 10:35:41;;;;;;;;;;;;;;;15.67;86.71;100574.96;1639450;86;22016;-80
2021/10/02 10:38:09;;;;;;;;;;;;;;;15.77;86.57;100563.61;1642260;86;20202;-79
2021/10/02 10:40:34;;;;;;;;;;;;;;;15.83;85.57;100558.05;1643804;86;20151;-79
2021/10/02 10:43:00;;;;;;;;;;;;;;;15.84;85.10;100553.05;1644392;86;20133;-81
2021/10/02 10:45:25;;;;;;;;;;;;;;;15.98;84.88;100556.23;1644450;85;20447;-78
2021/10/02 10:47:51;;;;;;;;;;;;;;;16.01;84.05;100553.20;1648774;85;21112;-81
2021/10/02 10:50:18;;;;;;;;;;;;;;;16.12;84.02;100545.27;1644382;85;20147;-79
2021/10/02 10:52:44;;;;;;;;;;;;;;;16.21;83.71;100544.17;1609784;87;21017;-84
2021/10/02 10:55:12;;;;;;;;;;;;;;;16.32;82.46;100542.89;1602386;87;20213;-78
2021/10/02 10:57:41;;;;;;;;;;;;;;;16.44;82.00;100540.08;1588503;89;20265;-81
2021/10/02 11:00:09;;;;;;;;;;;;;;;16.36;81.66;100542.00;1643295;86;22410;-78
2021/10/02 11:02:48;;;;;;;;;;;;;;;16.45;81.16;100541.75;1629713;87;20176;-77
2021/10/02 11:05:37;;;;;;;;;;;;;;;16.57;81.04;100535.42;1633021;86;20198;-78
2021/10/02 11:08:05;;;;;;;;;;;;;;;16.64;80.43;100534.16;1639838;86;20300;-83
2021/10/02 11:10:46;;;;;;;;;;;;;;;16.74;80.34;100531.22;1630955;86;20187;-84
2021/10/02 11:13:29;;;;;;;;;;;;;;;16.81;80.50;100528.95;1644033;86;21161;-77
2021/10/02 11:15:59;;;;;;;;;;;;;;;16.91;80.51;100533.19;1607079;87;20214;-77
2021/10/02 11:18:48;;;;;;;;;;;;;;;16.93;80.48;100521.81;1606016;87;20237;-81
2021/10/02 11:21:15;;;;;;;;;;;;;;;16.99;80.22;100522.39;1625656;86;20146;-84
2021/10/02 11:24:03;;;;;;;;;;;;;;;17.12;80.04;100519.88;1628247;85;20180;-79
2021/10/02 11:26:41;;;;;;;;;;;;;;;17.17;79.97;100524.13;1627790;86;22607;-82
2021/10/02 11:29:24;;;;;;;;;;;;;;;17.29;79.68;100520.94;1643627;86;20472;-81
2021/10/02 11:31:51;;;;;;;;;;;;;;;17.35;79.21;100518.31;1619840;86;20512;-80
2021/10/02 11:34:21;;;;;;;;;;;;;;;17.43;78.82;100516.54;1622692;86;20696;-80
2021/10/02 11:36:54;;;;;;;;;;;;;;;17.48;78.88;100510.11;1638825;86;20518;-77
2021/10/02 11:39:21;;;;;;;;;;;;;;;17.47;78.51;100511.14;1638868;86;20522;-76
2021/10/02 11:42:09;;;;;;;;;;;;;;;17.53;78.71;100506.38;1635405;86;20547;-85
2021/10/02 11:44:38;;;;;;;;;;;;;;;17.63;78.63;100508.70;1627704;86;20140;-81
2021/10/02 11:47:46;;;;;;;;;;;;;;;17.72;78.08;100508.34;1627363;86;20161;-82
2021/10/02 11:50:20;;;;;;;;;;;;;;;17.81;78.07;100509.56;1627282;86;20107;-77
2021/10/02 11:52:51;;;;;;;;;;;;;;;17.88;77.77;100504.61;1622392;86;21192;-79
2021/10/02 11:55:45;;;;;;;;;;;;;;;17.92;77.45;100511.19;1644757;86;20154;-78
2021/10/02 11:58:11;;;;;;;;;;;;;;;18.01;76.76;100500.38;1644177;86;20186;-79
2021/10/02 12:00:40;;;;;;;;;;;;;;;18.09;75.76;100497.53;1645229;86;20260;-84
2021/10/02 12:03:06;;;;;;;;;;;;;;;18.10;75.47;100493.81;1640833;86;20245;-80
2021/10/02 12:05:32;;;;;;;;;;;;;;;18.23;75.58;100493.89;1616423;86;21096;-79
2021/10/02 12:07:59;;;;;;;;;;;;;;;18.32;75.31;100487.04;1592531;87;20284;-80
2021/10/02 12:10:24;;;;;;;;;;;;;;;18.46;74.98;100497.61;1644126;85;20228;-87
2021/10/02 12:12:52;;;;;;;;;;;;;;;18.57;74.17;100485.51;1646099;85;20734;-84
2021/10/02 12:15:31;;;;;;;;;;;;;;;18.76;74.21;100488.45;1642815;86;20173;-88
2021/10/02 12:17:58;;;;;;;;;;;;;;;18.87;73.19;100489.22;1639948;86;21163;-81
2021/10/02 12:20:37;;;;;;;;;;;;;;;19.04;73.00;100489.66;1643009;86;20318;-82
2021/10/02 12:23:07;;;;;;;;;;;;;;;19.13;73.20;100476.92;1631508;86;20236;-83
2021/10/02 12:25:32;;;;;;;;;;;;;;;19.16;70.96;100468.48;1632052;86;20277;-81
2021/10/02 12:27:58;;;;;;;;;;;;;;;19.32;71.31;100473.94;1633557;87;20157;-83
2021/10/02 12:30:23;;;;;;;;;;;;;;;19.49;70.92;100475.69;1635710;86;21086;-85
2021/10/02 12:32:57;;;;;;;;;;;;;;;19.68;70.53;100476.16;1630277;87;20818;-80
2021/10/02 12:35:23;;;;;;;;;;;;;;;19.80;69.32;100476.39;1632506;86;20138;-79
2021/10/02 12:37:51;;;;;;;;;;;;;;;19.90;68.97;100467.91;1639096;86;20147;-79
2021/10/02 12:40:19;;;;;;;;;;;;;;;20.07;69.21;100475.83;1629319;87;20439;-81
2021/10/02 12:42:46;;;;;;;;;;;;;;;20.09;67.69;100475.09;1626797;87;20188;-81
2021/10/02 12:45:19;;;;;;;;;;;;;;;20.26;67.66;100474.63;1595358;88;20188;-81
2021/10/02 12:47:46;;;;;;;;;;;;;;;20.38;67.63;100476.92;1629275;86;20695;-79
2021/10/02 12:50:15;;;;;;;;;;;;;;;20.39;66.88;100483.14;1629202;86;20551;-81
2021/10/02 12:52:41;;;;;;;;;;;;;;;20.40;66.64;100482.08;1624547;86;20271;-87
2021/10/02 12:55:15;;;;;;;;;;;;;;;20.45;67.01;100473.71;1592517;88;21278;-81
2021/10/02 12:57:42;;;;;;;;;;;;;;;20.53;67.01;100472.64;1589271;89;21164;-80
2021/10/02 13:00:13;;;;;;;;;;;;;;;20.66;66.28;100478.48;1610258;89;20151;-80
2021/10/02 13:02:40;;;;;;;;;;;;;;;20.70;65.90;100474.34;1589396;88;20164;-81
2021/10/02 13:05:06;;;;;;;;;;;;;;;20.76;66.16;100470.80;1623001;86;20187;-83
2021/10/02 13:07:34;;;;;;;;;;;;;;;20.73;66.57;100471.23;1585938;88;21114;-81
2021/10/02 13:10:12;;;;;;;;;;;;;;;20.69;66.12;100478.05;1624253;86;20167;-82
2021/10/02 13:12:41;;;;;;;;;;;;;;;20.62;65.66;100477.25;1628005;86;20103;-84
2021/10/02 13:15:08;;;;;;;;;;;;;;;20.69;65.59;100475.38;1624397;86;20206;-79
2021/10/02 13:17:34;;;;;;;;;;;;;;;20.68;65.48;100465.69;1630565;86;20445;-80
2021/10/02 13:20:08;;;;;;;;;;;;;;;20.72;65.43;100469.58;1623549;86;21128;-80
2021/10/02 13:22:39;;;;;;;;;;;;;;;20.79;65.64;100466.88;1629308;86;20238;-77
2021/10/02 13:25:17;;;;;;;;;;;;;;;20.78;65.66;100467.90;1626653;87;20190;-81
2021/10/02 13:27:44;;;;;;;;;;;;;;;20.87;65.56;100469.81;1608631;87;20499;-79
2021/10/02 13:30:19;;;;;;;;;;;;;;;20.94;65.65;100467.89;1646322;86;20486;-81